Aviation Digital Data Service (ADDS)

Output produced by METARs form (1824 UTC 22 November 2017)
found at http://www.aviationweather.gov/adds/metars/
 
MRLB 221700Z 2218/2318 27006KT 9999 SCT020 TX32/2219Z TN21/2311Z 
     TEMPO 2221/2224 SHRA FEW020TCU BKN030 
     BECMG 2303/2306 09007KT
       
MROC 221700Z 2218/2318 24007KT 9999 SCT015 TX28/2318Z TN19/2310Z 
     TEMPO 2221/2223 SHRA FEW020TCU BKN030 
     TEMPO 2223/2303 5000 RA BR FEW005 BKN030 
     BECMG 2303/2306 07007KT
       
MRLM 221700Z 2218/2318 35009KT 9999 FEW030 TX31/2219Z TN22/2311Z 
     BECMG 2300/2303 26006KT 
     BECMG 2314/2317 34010KT
       
MRPV 221700Z 2218/2318 27007KT 9999 SCT020 TX27/2318Z TN18/2310Z 
     TEMPO 2221/2301 5000 RA SCT005 BKN030 
     BECMG 2301/2304 09009KT